KVBG/VBG METAR and TAF weather

Enter ICAO airport designator
Station Type Date Time Source
KVBG METAR 2020/03/31 09:58 UTC NOAA

KVBG 310958Z AUTO 02010KT 8SM CLR 11/10 A3016 RMK AO2 SLP216 T01080098


Station Type Date Time Source
KVBG Decoded METAR 2020/03/31 09:58 UTC NOAA

Lompoc, Vandenberg Air Force Base, CA, United States (KVBG) 34-43-46N 120-34-36W 121M
Mar 31, 2020 - 05:58 AM EDT / 2020.03.31 0958 UTC
Wind: from the NNE (020 degrees) at 12 MPH (10 KT):0
Visibility: 8 mile(s):0
Sky conditions: clear
Temperature: 51.4 F (10.8 C)
Dew Point: 49.6 F (9.8 C)
Relative Humidity: 93%
Pressure (altimeter): 30.16 in. Hg (1021 hPa)
ob: KVBG 310958Z AUTO 02010KT 8SM CLR 11/10 A3016 RMK AO2 SLP216 T01080098
cycle: 10

Station Type Date Time Source
KVBG TAF 2020/03/30 23:51 UTC NOAA

TAF COR KVBG 302342Z 3023/0104 34015G25KT 9999 SKC 510005 QNH3023INS
BECMG 3102/3103 35010KT 9999 SKC QNH3020INS
BECMG 3119/3120 34015G25KT 9999 SKC 510005 QNH3015INS
BECMG 0102/0103 35010KT 9999 SKC QNH3021INS TX20/3121Z TN12/3109Z LAST NO
AMDS AFT 3100 NEXT 3114

Example: see airport list